Club at Las Campanas

Feb. 28, 2020, 10 a.m.

  • imperial
Air Temperature RH Wind Speed Wind Direction Precipitation Solar Radiation
Date Time Max Min Mean Max Min Mean Max Mean Mean Total Total
US/Mountain F F F % % % MPH MPH deg. in. MJ/m^2
2020-02-27 10:00 36.66 34.14 35.53 41.3 38.59 39.94 13.67 13.33 60.0 0.0 1.738
2020-02-27 11:00 39.36 37.18 38.25 38.47 36.05 37.16 13.67 12.95 58.5 0.0 2.187
2020-02-27 12:00 43.59 40.62 42.13 35.26 32.17 33.86 12.8 11.57 72.0 0.0 2.584
2020-02-27 13:00 45.36 44.33 44.87 30.57 27.94 29.39 12.26 10.22 59.5 0.0 2.68
2020-02-27 14:00 47.16 45.66 46.35 27.91 27.63 27.75 8.43 7.2 22.0 0.0 2.527
2020-02-27 15:00 48.47 47.68 48.04 26.75 25.71 26.31 6.13 5.77 33.2 0.0 2.156
2020-02-27 16:00 49.77 48.52 49.12 25.83 24.5 25.13 6.51 4.97 134.2 0.0 1.608
2020-02-27 17:00 50.13 49.73 49.91 24.28 22.47 23.4 4.05 3.27 112.8 0.0 0.936
2020-02-27 18:00 50.07 48.02 49.32 22.2 21.21 21.76 2.86 1.99 305.8 0.0 0.276
2020-02-27 19:00 46.63 39.99 43.5 32.08 22.83 26.82 3.56 2.42 171.5 0.0 0.001
2020-02-27 20:00 40.86 37.06 38.97 36.12 29.87 32.94 6.6 4.05 157.5 0.0 0.0
2020-02-27 21:00 38.8 37.45 38.17 35.43 33.72 34.46 8.63 6.87 126.0 0.0 0.0
2020-02-27 22:00 38.35 37.31 37.87 36.95 34.32 35.7 6.06 5.5 102.5 0.0 0.0
2020-02-27 23:00 39.04 37.26 38.3 37.16 35.77 36.44 10.89 9.8 107.2 0.0 0.0
2020-02-28 00:00 36.72 35.87 36.21 39.26 37.96 38.74 6.71 6.17 122.5 0.0 0.0
2020-02-28 01:00 34.14 31.26 32.49 47.21 42.05 45.0 4.65 3.94 67.0 0.0 0.0
2020-02-28 02:00 32.41 31.23 31.57 47.28 46.36 46.95 7.34 5.66 82.2 0.0 0.0
2020-02-28 03:00 33.39 30.25 31.89 49.19 44.89 46.74 8.93 5.46 70.2 0.0 0.0
2020-02-28 04:00 29.61 28.08 28.47 53.73 49.6 51.94 3.91 2.82 46.0 0.0 0.0
2020-02-28 05:00 28.13 27.27 27.72 55.59 53.65 54.91 4.99 4.63 52.8 0.0 0.0
2020-02-28 06:00 27.21 26.74 27.03 58.83 55.95 57.21 5.3 4.83 66.0 0.0 0.0
2020-02-28 07:00 26.46 25.75 26.06 61.08 59.28 60.22 6.42 5.37 77.0 0.0 0.028
2020-02-28 08:00 29.68 27.59 28.69 60.58 59.34 60.04 10.94 8.63 75.8 0.0 0.454
2020-02-28 09:00 33.51 30.69 31.91 59.02 55.6 57.6 7.87 7.16 64.5 0.0 1.081
2020-02-28 10:00 39.65 35.44 37.51 52.77 43.38 47.78 8.25 7.52 61.2 0.0 1.752

Data is courtesy of the NM Climate Center and other weather station network operators. DO NOT USE IN LEGAL PROCEEDINGS